Centralia, Centralia Municipal Airport (KENL)

NameCentralia Municipal Airport
CityCentralia
CountryUnited States
ICAOKENL
IATAENL
Altitude163 m
CoordinatesGoogle Map
Live Air TrafficLiveATC.net
METARKENL 060455Z AUTO 18005KT 10SM OVC110 10/04 A3002 RMK AO2 T01030037
2019-12-06 04:55:00 Wind: South (180°) 2.57 m/s - Visibility: 16093.4 m - Temperature: 10 °C - Dew point: 4 °C - Humidity: 66.6% - Pressure: 1016.59 hPa

Sorry, no flights used the airport in this database.